createdAt,value
2019-05-15T00:00:50.116Z,1013.71
2019-05-15T00:01:50.082Z,1013.70
2019-05-15T00:02:50.058Z,1013.66
2019-05-15T00:03:50.051Z,1013.68
2019-05-15T00:04:50.036Z,1013.59
2019-05-15T00:05:50.041Z,1013.61
2019-05-15T00:06:50.015Z,1013.63
2019-05-15T00:07:50.005Z,1013.60
2019-05-15T00:08:49.996Z,1013.53
2019-05-15T00:09:49.982Z,1013.57
2019-05-15T00:10:49.988Z,1013.57
2019-05-15T00:11:49.957Z,1013.61
2019-05-15T00:12:49.947Z,1013.61
2019-05-15T00:13:49.939Z,1013.55
2019-05-15T00:14:49.926Z,1013.57
2019-05-15T00:15:49.929Z,1013.56
2019-05-15T00:16:49.901Z,1013.59
2019-05-15T00:17:49.889Z,1013.56
2019-05-15T00:18:49.878Z,1013.54
2019-05-15T00:19:49.867Z,1013.51
2019-05-15T00:20:49.937Z,1013.54
2019-05-15T00:21:49.845Z,1013.55
2019-05-15T00:22:49.833Z,1013.50
2019-05-15T00:23:49.821Z,1013.49
2019-05-15T00:24:49.815Z,1013.50
2019-05-15T00:25:49.818Z,1013.51
2019-05-15T00:26:49.791Z,1013.46
2019-05-15T00:27:49.777Z,1013.43
2019-05-15T00:28:49.766Z,1013.46
2019-05-15T00:29:49.762Z,1013.44
2019-05-15T00:30:49.759Z,1013.42
2019-05-15T00:31:49.738Z,1013.40
2019-05-15T00:32:49.718Z,1013.40
2019-05-15T00:33:49.707Z,1013.44
2019-05-15T00:34:49.696Z,1013.38
2019-05-15T00:35:49.700Z,1013.42
2019-05-15T00:36:49.676Z,1013.44
2019-05-15T00:37:49.666Z,1013.43
2019-05-15T00:38:49.652Z,1013.39
2019-05-15T00:39:49.642Z,1013.41
2019-05-15T00:40:49.798Z,1013.36
2019-05-15T00:41:54.356Z,1013.40
2019-05-15T00:42:50.608Z,1013.41
2019-05-15T00:43:49.647Z,1013.39
2019-05-15T00:44:49.582Z,1013.34
2019-05-15T00:45:49.593Z,1013.37
2019-05-15T00:46:49.560Z,1013.34
2019-05-15T00:47:49.553Z,1013.39
2019-05-15T00:48:49.538Z,1013.47
2019-05-15T00:49:49.527Z,1013.40
2019-05-15T00:50:49.514Z,1013.43
2019-05-15T00:51:49.524Z,1013.41
2019-05-15T00:52:49.495Z,1013.42
2019-05-15T00:53:49.482Z,1013.44
2019-05-15T00:54:49.472Z,1013.44
2019-05-15T00:55:49.462Z,1013.41
2019-05-15T00:56:49.450Z,1013.45
2019-05-15T00:57:49.455Z,1013.41
2019-05-15T00:58:49.426Z,1013.42
2019-05-15T00:59:49.415Z,1013.37
2019-05-15T01:00:49.403Z,1013.37
2019-05-15T01:01:49.390Z,1013.36
2019-05-15T01:02:49.378Z,1013.34
2019-05-15T01:03:49.492Z,1013.32
2019-05-15T01:04:49.377Z,1013.33
2019-05-15T01:05:49.344Z,1013.32
2019-05-15T01:06:52.564Z,1013.29
2019-05-15T01:07:49.323Z,1013.28
2019-05-15T01:08:49.329Z,1013.28
2019-05-15T01:09:49.300Z,1013.29
2019-05-15T01:10:49.289Z,1013.26
2019-05-15T01:11:49.278Z,1013.24
2019-05-15T01:12:49.272Z,1013.28
2019-05-15T01:13:49.272Z,1013.30
2019-05-15T01:14:49.242Z,1013.23
2019-05-15T01:15:49.258Z,1013.27
2019-05-15T01:16:49.225Z,1013.24
2019-05-15T01:17:49.333Z,1013.20
2019-05-15T01:18:49.994Z,1013.21
2019-05-15T01:19:49.186Z,1013.21
2019-05-15T01:20:49.511Z,1013.19
2019-05-15T01:21:49.166Z,1013.19
2019-05-15T01:22:49.156Z,1013.22
2019-05-15T01:23:49.141Z,1013.25
2019-05-15T01:24:49.137Z,1013.23
2019-05-15T01:25:49.143Z,1013.17
2019-05-15T01:26:49.355Z,1013.20
2019-05-15T01:27:49.137Z,1013.21
2019-05-15T01:28:49.594Z,1013.19
2019-05-15T01:29:49.466Z,1013.13
2019-05-15T01:30:49.076Z,1013.13
2019-05-15T01:31:49.146Z,1013.15
2019-05-15T01:32:49.047Z,1013.19
2019-05-15T01:33:49.026Z,1013.16
2019-05-15T01:34:49.259Z,1013.13
2019-05-15T01:35:49.059Z,1013.09
2019-05-15T01:36:49.144Z,1013.09
2019-05-15T01:37:48.981Z,1013.10
2019-05-15T01:38:48.975Z,1013.10
2019-05-15T01:39:48.958Z,1013.07
2019-05-15T01:40:48.973Z,1013.06
2019-05-15T01:41:49.610Z,1013.03
2019-05-15T01:42:49.972Z,1013.05
2019-05-15T01:43:49.209Z,1013.01
2019-05-15T01:44:48.904Z,1013.04
2019-05-15T01:45:48.919Z,1013.03
2019-05-15T01:46:49.537Z,1013.04
2019-05-15T01:47:48.873Z,1013.08
2019-05-15T01:48:49.458Z,1013.04
2019-05-15T01:49:49.175Z,1013.07
2019-05-15T01:50:49.475Z,1013.07
2019-05-15T01:51:48.957Z,1013.03
2019-05-15T01:52:48.810Z,1013.03
2019-05-15T01:53:48.799Z,1013.02
2019-05-15T01:54:49.024Z,1013.01
2019-05-15T01:55:48.921Z,1012.98
2019-05-15T01:56:49.453Z,1012.96
2019-05-15T01:57:48.814Z,1012.98
2019-05-15T01:58:48.924Z,1013.00
2019-05-15T01:59:57.204Z,1012.97
2019-05-15T02:00:49.735Z,1012.95
2019-05-15T02:01:48.814Z,1012.96
2019-05-15T02:02:48.697Z,1012.95
2019-05-15T02:03:49.260Z,1012.91
2019-05-15T02:04:48.844Z,1012.93
2019-05-15T02:05:48.678Z,1012.89
2019-05-15T02:06:48.654Z,1012.91
2019-05-15T02:07:48.641Z,1012.91
2019-05-15T02:08:49.761Z,1012.90
2019-05-15T02:09:49.258Z,1012.89
2019-05-15T02:10:49.419Z,1012.88
2019-05-15T02:11:49.021Z,1012.84
2019-05-15T02:12:48.583Z,1012.83
2019-05-15T02:13:48.573Z,1012.88
2019-05-15T02:14:48.691Z,1012.82
2019-05-15T02:15:48.565Z,1012.84
2019-05-15T02:16:48.596Z,1012.86
2019-05-15T02:17:48.529Z,1012.85
2019-05-15T02:18:48.990Z,1012.83
2019-05-15T02:19:48.663Z,1012.83
2019-05-15T02:20:49.335Z,1012.82
2019-05-15T02:21:48.761Z,1012.84
2019-05-15T02:22:48.619Z,1012.82
2019-05-15T02:23:48.463Z,1012.81
2019-05-15T02:24:48.447Z,1012.81
2019-05-15T02:25:48.457Z,1012.80
2019-05-15T02:26:48.435Z,1012.78
2019-05-15T02:27:48.412Z,1012.78
2019-05-15T02:28:48.887Z,1012.77
2019-05-15T02:29:49.373Z,1012.80
2019-05-15T02:30:50.526Z,1012.80
2019-05-15T02:31:50.351Z,1012.76
2019-05-15T02:32:50.081Z,1012.76
2019-05-15T02:33:49.855Z,1012.74
2019-05-15T02:34:50.108Z,1012.75
2019-05-15T02:35:50.267Z,1012.76
2019-05-15T02:36:49.252Z,1012.79
2019-05-15T02:37:48.882Z,1012.80
2019-05-15T02:38:48.764Z,1012.81
2019-05-15T02:39:49.555Z,1012.76
2019-05-15T02:40:49.452Z,1012.76
2019-05-15T02:41:49.125Z,1012.75
2019-05-15T02:42:49.330Z,1012.75
2019-05-15T02:43:50.102Z,1012.79
2019-05-15T02:44:50.057Z,1012.76
2019-05-15T02:45:50.882Z,1012.79
2019-05-15T02:46:49.916Z,1012.79
2019-05-15T02:47:49.052Z,1012.80
2019-05-15T02:48:48.821Z,1012.80
2019-05-15T02:49:48.739Z,1012.70
2019-05-15T02:50:50.147Z,1012.74
2019-05-15T02:51:49.316Z,1012.80
2019-05-15T02:52:49.762Z,1012.77
2019-05-15T02:53:50.011Z,1012.77
2019-05-15T02:54:49.807Z,1012.76
2019-05-15T02:55:49.457Z,1012.76
2019-05-15T02:56:49.514Z,1012.74
2019-05-15T02:57:49.504Z,1012.73
2019-05-15T02:58:49.095Z,1012.78
2019-05-15T02:59:49.798Z,1012.77
2019-05-15T03:00:53.134Z,1012.74
2019-05-15T03:01:49.494Z,1012.74
2019-05-15T03:02:49.887Z,1012.78
2019-05-15T03:03:49.755Z,1012.76
2019-05-15T03:04:48.703Z,1012.86
2019-05-15T03:05:49.867Z,1012.81
2019-05-15T03:06:49.646Z,1012.81
2019-05-15T03:07:49.321Z,1012.74
2019-05-15T03:08:49.496Z,1012.77
2019-05-15T03:09:49.662Z,1012.85
2019-05-15T03:10:49.753Z,1012.76
2019-05-15T03:11:49.375Z,1012.82
2019-05-15T03:12:49.541Z,1012.82
2019-05-15T03:13:50.450Z,1012.83
2019-05-15T03:14:49.079Z,1012.80
2019-05-15T03:15:48.986Z,1012.79
2019-05-15T03:16:49.770Z,1012.79
2019-05-15T03:17:49.497Z,1012.79
2019-05-15T03:18:50.623Z,1012.80
2019-05-15T03:19:49.750Z,1012.78
2019-05-15T03:20:50.177Z,1012.78
2019-05-15T03:21:49.788Z,1012.82
2019-05-15T03:22:49.309Z,1012.81
2019-05-15T03:23:50.719Z,1012.82
2019-05-15T03:24:50.173Z,1012.79
2019-05-15T03:25:49.090Z,1012.74
2019-05-15T03:26:49.645Z,1012.77
2019-05-15T03:27:49.948Z,1012.79
2019-05-15T03:28:49.631Z,1012.82
2019-05-15T03:29:49.436Z,1012.84
2019-05-15T03:31:18.216Z,1012.82
2019-05-15T03:31:59.260Z,1012.83
2019-05-15T03:32:55.785Z,1012.82
2019-05-15T03:33:53.764Z,1012.82
2019-05-15T03:34:55.790Z,1012.79
2019-05-15T03:35:53.598Z,1012.77
2019-05-15T03:36:52.914Z,1012.79
2019-05-15T03:37:49.194Z,1012.80
2019-05-15T03:38:49.903Z,1012.81
2019-05-15T03:39:51.590Z,1012.79
2019-05-15T03:40:49.847Z,1012.78
2019-05-15T03:41:49.747Z,1012.79
2019-05-15T03:42:49.587Z,1012.82
2019-05-15T03:43:49.700Z,1012.83
2019-05-15T03:44:50.268Z,1012.90
2019-05-15T03:45:49.296Z,1012.88
2019-05-15T03:46:49.136Z,1012.85
2019-05-15T03:47:49.193Z,1012.89
2019-05-15T03:48:48.750Z,1012.90
2019-05-15T03:49:49.389Z,1012.90
2019-05-15T03:50:48.906Z,1012.96
2019-05-15T03:51:50.088Z,1012.95
2019-05-15T03:52:49.669Z,1012.96
2019-05-15T03:53:49.702Z,1012.97
2019-05-15T03:54:49.475Z,1012.99
2019-05-15T03:55:48.990Z,1012.99
2019-05-15T03:56:49.908Z,1012.99
2019-05-15T03:57:49.949Z,1012.97
2019-05-15T03:58:49.443Z,1012.95
2019-05-15T03:59:48.996Z,1012.96
2019-05-15T04:00:49.853Z,1012.92
2019-05-15T04:01:49.708Z,1012.97
2019-05-15T04:02:48.862Z,1012.91
2019-05-15T04:03:49.594Z,1012.92
2019-05-15T04:04:50.081Z,1012.94
2019-05-15T04:05:49.428Z,1012.95
2019-05-15T04:06:49.908Z,1012.97
2019-05-15T04:07:49.597Z,1012.97
2019-05-15T04:08:49.617Z,1012.99
2019-05-15T04:09:49.388Z,1012.97
2019-05-15T04:10:48.789Z,1012.98
2019-05-15T04:11:49.766Z,1012.96
2019-05-15T04:12:49.334Z,1012.96
2019-05-15T04:13:49.981Z,1012.90
2019-05-15T04:14:50.031Z,1012.95
2019-05-15T04:15:50.138Z,1012.98
2019-05-15T04:16:49.658Z,1012.96
2019-05-15T04:17:49.295Z,1012.96
2019-05-15T04:18:49.040Z,1013.00
2019-05-15T04:19:49.644Z,1012.99
2019-05-15T04:20:49.391Z,1012.93
2019-05-15T04:21:49.379Z,1012.92
2019-05-15T04:22:49.203Z,1012.92
2019-05-15T04:23:49.709Z,1012.93
2019-05-15T04:24:49.537Z,1012.94
2019-05-15T04:25:49.395Z,1012.90
2019-05-15T04:26:48.690Z,1012.94
2019-05-15T04:27:49.318Z,1012.92
2019-05-15T04:28:49.520Z,1012.93
2019-05-15T04:29:49.245Z,1012.91
2019-05-15T04:30:49.483Z,1012.95
2019-05-15T04:31:56.322Z,1012.93
2019-05-15T04:32:48.798Z,1012.91
2019-05-15T04:33:49.176Z,1012.94
2019-05-15T04:34:48.912Z,1012.94
2019-05-15T04:35:49.666Z,1012.92
2019-05-15T04:36:49.513Z,1012.94
2019-05-15T04:37:49.490Z,1012.93
2019-05-15T04:38:49.842Z,1012.90
2019-05-15T04:39:49.135Z,1012.93
2019-05-15T04:40:49.930Z,1012.95
2019-05-15T04:41:49.757Z,1012.88
2019-05-15T04:42:49.598Z,1012.90
2019-05-15T04:43:49.378Z,1012.92
2019-05-15T04:44:49.493Z,1012.95
2019-05-15T04:45:49.680Z,1012.91
2019-05-15T04:46:49.675Z,1012.93
2019-05-15T04:47:49.764Z,1012.93
2019-05-15T04:48:49.857Z,1012.90
2019-05-15T04:49:50.252Z,1012.90
2019-05-15T04:50:49.443Z,1012.90
2019-05-15T04:51:49.811Z,1012.90
2019-05-15T04:52:49.927Z,1012.92
2019-05-15T04:53:49.943Z,1012.89
2019-05-15T04:54:49.355Z,1012.92
2019-05-15T04:55:49.137Z,1012.93
2019-05-15T04:56:48.966Z,1012.95
2019-05-15T04:57:49.936Z,1012.93
2019-05-15T04:58:50.750Z,1012.97
2019-05-15T04:59:49.494Z,1012.95
2019-05-15T05:00:49.706Z,1012.94
2019-05-15T05:01:46.666Z,1012.93
2019-05-15T05:02:49.503Z,1012.90
2019-05-15T05:03:49.352Z,1012.93
2019-05-15T05:04:49.200Z,1012.91
2019-05-15T05:05:49.510Z,1012.86
2019-05-15T05:06:49.288Z,1012.88
2019-05-15T05:07:49.053Z,1012.93
2019-05-15T05:08:49.091Z,1012.87
2019-05-15T05:09:48.948Z,1012.92
2019-05-15T05:10:48.846Z,1012.90
2019-05-15T05:11:48.938Z,1012.94
2019-05-15T05:12:50.744Z,1012.92
2019-05-15T05:13:48.579Z,1012.97
2019-05-15T05:14:48.377Z,1012.94
2019-05-15T05:15:49.557Z,1012.97
2019-05-15T05:16:48.854Z,1013.01
2019-05-15T05:17:48.871Z,1012.97
2019-05-15T05:18:48.788Z,1012.98
2019-05-15T05:19:51.175Z,1013.00
2019-05-15T05:20:48.503Z,1013.01
2019-05-15T05:21:47.926Z,1013.02
2019-05-15T05:22:48.357Z,1013.04
2019-05-15T05:23:48.375Z,1013.03
2019-05-15T05:24:47.855Z,1013.02
2019-05-15T05:25:48.827Z,1013.02
2019-05-15T05:26:48.867Z,1013.03
2019-05-15T05:27:48.537Z,1013.03
2019-05-15T05:28:48.433Z,1013.05
2019-05-15T05:29:48.078Z,1013.01
2019-05-15T05:30:48.228Z,1013.02
2019-05-15T05:31:49.031Z,1013.00
2019-05-15T05:32:48.628Z,1012.98
2019-05-15T05:33:48.518Z,1013.04
2019-05-15T05:34:48.268Z,1013.05
2019-05-15T05:35:48.532Z,1013.05
2019-05-15T05:36:47.964Z,1013.06
2019-05-15T05:37:48.069Z,1013.11
2019-05-15T05:38:46.247Z,1013.06
2019-05-15T05:39:48.215Z,1013.05
2019-05-15T05:40:49.811Z,1013.04
2019-05-15T05:41:48.566Z,1013.04
2019-05-15T05:42:48.001Z,1013.06
2019-05-15T05:43:48.587Z,1013.05
2019-05-15T05:44:46.176Z,1013.04
2019-05-15T05:45:46.185Z,1013.07
2019-05-15T05:46:46.157Z,1013.08
2019-05-15T05:47:48.580Z,1013.06
2019-05-15T05:48:46.132Z,1013.06
2019-05-15T05:49:46.122Z,1013.07
2019-05-15T05:50:49.172Z,1013.08
2019-05-15T05:51:48.132Z,1013.06
2019-05-15T05:52:46.084Z,1013.07
2019-05-15T05:53:48.027Z,1013.09
2019-05-15T05:54:46.068Z,1013.03
2019-05-15T05:55:46.074Z,1013.08
2019-05-15T05:56:48.217Z,1013.08
2019-05-15T05:57:46.029Z,1013.06
2019-05-15T05:58:46.020Z,1013.02
2019-05-15T05:59:46.006Z,1013.04
2019-05-15T06:00:48.595Z,1013.09
2019-05-15T06:01:48.289Z,1013.05
2019-05-15T06:02:48.852Z,1013.04
2019-05-15T06:03:49.013Z,1012.98
2019-05-15T06:04:47.848Z,1012.97
2019-05-15T06:05:45.956Z,1012.98
2019-05-15T06:06:45.931Z,1012.92
2019-05-15T06:07:45.914Z,1012.99
2019-05-15T06:08:48.009Z,1012.96
2019-05-15T06:09:45.898Z,1012.96
2019-05-15T06:10:45.905Z,1012.97
2019-05-15T06:11:45.871Z,1012.96
2019-05-15T06:12:45.860Z,1012.96
2019-05-15T06:13:45.856Z,1013.02
2019-05-15T06:14:45.839Z,1012.95
2019-05-15T06:15:45.846Z,1012.95
2019-05-15T06:16:47.997Z,1012.99
2019-05-15T06:17:47.997Z,1013.00
2019-05-15T06:18:45.791Z,1012.94
2019-05-15T06:19:48.057Z,1012.98
2019-05-15T06:20:45.786Z,1012.97
2019-05-15T06:21:54.617Z,1012.95
2019-05-15T06:22:47.907Z,1012.94
2019-05-15T06:23:48.390Z,1012.97
2019-05-15T06:24:48.504Z,1012.97
2019-05-15T06:25:48.408Z,1012.92
2019-05-15T06:26:47.984Z,1012.93
2019-05-15T06:27:48.177Z,1012.90
2019-05-15T06:28:45.677Z,1012.92
2019-05-15T06:29:45.663Z,1012.90
2019-05-15T06:30:45.675Z,1012.89
2019-05-15T06:31:45.649Z,1012.88
2019-05-15T06:33:01.874Z,1012.89
2019-05-15T06:33:48.874Z,1012.80
2019-05-15T06:34:48.476Z,1012.87
2019-05-15T06:35:45.615Z,1012.92
2019-05-15T06:36:45.586Z,1012.89
2019-05-15T06:37:45.576Z,1012.90
2019-05-15T06:38:48.165Z,1012.85
2019-05-15T06:39:45.551Z,1012.90
2019-05-15T06:40:45.596Z,1012.92
2019-05-15T06:41:48.092Z,1012.89
2019-05-15T06:42:48.230Z,1013.02
2019-05-15T06:43:48.103Z,1012.98
2019-05-15T06:44:45.503Z,1012.93
2019-05-15T06:45:45.503Z,1012.94
2019-05-15T06:46:45.473Z,1012.94
2019-05-15T06:47:45.466Z,1012.97
2019-05-15T06:48:45.450Z,1012.95
2019-05-15T06:49:45.439Z,1012.96
2019-05-15T06:50:45.445Z,1012.91
2019-05-15T06:51:45.418Z,1012.93
2019-05-15T06:52:45.410Z,1012.97
2019-05-15T06:53:45.392Z,1012.97
2019-05-15T06:54:45.383Z,1012.97
2019-05-15T06:55:45.387Z,1012.94
2019-05-15T06:56:45.366Z,1012.99
2019-05-15T06:57:45.352Z,1012.95
2019-05-15T06:58:45.338Z,1012.95
2019-05-15T06:59:45.328Z,1013.02
2019-05-15T07:00:45.342Z,1012.98
2019-05-15T07:01:47.963Z,1012.98
2019-05-15T07:02:45.295Z,1013.01
2019-05-15T07:03:45.284Z,1012.96
2019-05-15T07:04:45.269Z,1012.97
2019-05-15T07:05:45.271Z,1012.93
2019-05-15T07:06:45.248Z,1012.93
2019-05-15T07:07:45.241Z,1012.96
2019-05-15T07:08:45.244Z,1012.97
2019-05-15T07:09:45.219Z,1012.95
2019-05-15T07:10:45.603Z,1012.88
2019-05-15T07:11:45.189Z,1012.84
2019-05-15T07:12:48.433Z,1012.88
2019-05-15T07:13:48.479Z,1012.82
2019-05-15T07:14:45.156Z,1012.79
2019-05-15T07:15:45.603Z,1012.81
2019-05-15T07:16:45.138Z,1012.87
2019-05-15T07:17:45.128Z,1012.82
2019-05-15T07:18:48.319Z,1012.78
2019-05-15T07:19:45.106Z,1012.79
2019-05-15T07:20:45.614Z,1012.80
2019-05-15T07:21:45.077Z,1012.84
2019-05-15T07:22:45.068Z,1012.75
2019-05-15T07:23:45.106Z,1012.82
2019-05-15T07:24:45.043Z,1012.89
2019-05-15T07:25:45.593Z,1012.83
2019-05-15T07:26:45.033Z,1012.74
2019-05-15T07:27:45.013Z,1012.80
2019-05-15T07:28:44.998Z,1012.75
2019-05-15T07:29:45.015Z,1012.77
2019-05-15T07:30:44.975Z,1012.74
2019-05-15T07:31:47.706Z,1012.79
2019-05-15T07:32:44.955Z,1012.77
2019-05-15T07:33:48.860Z,1012.75
2019-05-15T07:34:44.932Z,1012.69
2019-05-15T07:35:45.592Z,1012.77
2019-05-15T07:36:44.912Z,1012.79
2019-05-15T07:37:44.896Z,1012.77
2019-05-15T07:38:44.890Z,1012.81
2019-05-15T07:39:44.874Z,1012.74
2019-05-15T07:40:44.870Z,1012.74
2019-05-15T07:41:44.883Z,1012.74
2019-05-15T07:42:44.847Z,1012.73
2019-05-15T07:43:44.832Z,1012.84
2019-05-15T07:44:44.818Z,1012.78
2019-05-15T07:45:44.949Z,1012.76
2019-05-15T07:46:44.794Z,1012.77
2019-05-15T07:47:45.110Z,1012.72
2019-05-15T07:48:44.775Z,1012.79
2019-05-15T07:49:44.764Z,1012.78
2019-05-15T07:50:44.750Z,1012.80
2019-05-15T07:51:44.740Z,1012.79
2019-05-15T07:52:48.428Z,1012.73
2019-05-15T07:53:44.732Z,1012.74
2019-05-15T07:54:45.595Z,1012.70
2019-05-15T07:55:44.698Z,1012.75
2019-05-15T07:56:44.687Z,1012.72
2019-05-15T07:57:44.672Z,1012.75
2019-05-15T07:58:44.688Z,1012.67
2019-05-15T07:59:44.648Z,1012.65
2019-05-15T08:00:44.636Z,1012.67
2019-05-15T08:01:44.630Z,1012.75
2019-05-15T08:02:44.613Z,1012.74
2019-05-15T08:03:58.530Z,1012.71
2019-05-15T08:04:48.266Z,1012.66
2019-05-15T08:05:57.941Z,1012.67
2019-05-15T08:06:45.568Z,1012.66
2019-05-15T08:07:44.558Z,1012.69
2019-05-15T08:08:44.545Z,1012.65
2019-05-15T08:09:44.532Z,1012.62
2019-05-15T08:10:44.551Z,1012.63
2019-05-15T08:11:48.362Z,1012.66
2019-05-15T08:12:44.514Z,1012.64
2019-05-15T08:13:45.102Z,1012.68
2019-05-15T08:14:47.347Z,1012.64
2019-05-15T08:15:45.494Z,1012.65
2019-05-15T08:16:44.455Z,1012.61
2019-05-15T08:18:00.257Z,1012.68
2019-05-15T08:18:45.435Z,1012.66
2019-05-15T08:19:44.425Z,1012.65
2019-05-15T08:20:44.413Z,1012.67
2019-05-15T08:21:44.416Z,1012.70
2019-05-15T08:22:45.948Z,1012.69
2019-05-15T08:23:48.495Z,1012.70
2019-05-15T08:24:44.364Z,1012.68
2019-05-15T08:25:44.353Z,1012.62
2019-05-15T08:26:45.658Z,1012.61
2019-05-15T08:27:44.329Z,1012.62
2019-05-15T08:28:44.329Z,1012.59
2019-05-15T08:29:44.307Z,1012.59
2019-05-15T08:30:44.298Z,1012.53
2019-05-15T08:31:44.301Z,1012.63
2019-05-15T08:32:44.316Z,1012.55
2019-05-15T08:33:44.262Z,1012.58
2019-05-15T08:34:44.248Z,1012.52
2019-05-15T08:35:47.976Z,1012.50
2019-05-15T08:36:45.240Z,1012.50
2019-05-15T08:37:44.215Z,1012.53
2019-05-15T08:38:44.227Z,1012.51
2019-05-15T08:39:44.195Z,1012.51
2019-05-15T08:40:44.181Z,1012.46
2019-05-15T08:41:44.171Z,1012.51
2019-05-15T08:42:44.159Z,1012.47
2019-05-15T08:43:44.176Z,1012.42
2019-05-15T08:44:44.136Z,1012.41
2019-05-15T08:45:44.125Z,1012.36
2019-05-15T08:46:44.447Z,1012.41
2019-05-15T08:47:44.101Z,1012.39
2019-05-15T08:48:44.090Z,1012.34
2019-05-15T08:49:44.118Z,1012.35
2019-05-15T08:50:44.065Z,1012.33
2019-05-15T08:51:44.056Z,1012.37
2019-05-15T08:52:44.046Z,1012.34
2019-05-15T08:53:44.034Z,1012.33
2019-05-15T08:54:44.021Z,1012.36
2019-05-15T08:55:44.037Z,1012.34
2019-05-15T08:56:44.000Z,1012.33
2019-05-15T08:57:43.995Z,1012.25
2019-05-15T08:58:43.978Z,1012.21
2019-05-15T08:59:43.964Z,1012.23
2019-05-15T09:00:44.309Z,1012.23
2019-05-15T09:01:43.966Z,1012.14
2019-05-15T09:02:43.931Z,1012.15
2019-05-15T09:03:43.917Z,1012.16
2019-05-15T09:04:43.908Z,1012.19
2019-05-15T09:05:43.897Z,1012.20
2019-05-15T09:06:45.713Z,1012.19
2019-05-15T09:07:43.906Z,1012.19
2019-05-15T09:08:43.866Z,1012.22
2019-05-15T09:09:45.639Z,1012.21
2019-05-15T09:10:43.840Z,1012.19
2019-05-15T09:11:43.830Z,1012.23
2019-05-15T09:12:43.828Z,1012.15
2019-05-15T09:13:44.522Z,1012.34
2019-05-15T09:14:43.795Z,1012.20
2019-05-15T09:15:43.785Z,1012.15
2019-05-15T09:16:43.773Z,1012.16
2019-05-15T09:17:43.760Z,1012.17
2019-05-15T09:18:43.799Z,1012.15
2019-05-15T09:19:43.738Z,1012.13
2019-05-15T09:20:43.732Z,1012.08
2019-05-15T09:21:43.714Z,1012.11
2019-05-15T09:22:43.702Z,1012.11
2019-05-15T09:23:43.693Z,1012.10
2019-05-15T09:24:43.744Z,1012.10
2019-05-15T09:25:43.669Z,1012.01
2019-05-15T09:26:43.657Z,1012.01
2019-05-15T09:27:43.644Z,1012.03
2019-05-15T09:28:43.641Z,1012.02
2019-05-15T09:29:43.622Z,1011.95
2019-05-15T09:30:43.641Z,1012.05
2019-05-15T09:31:43.603Z,1011.98
2019-05-15T09:32:43.587Z,1011.98
2019-05-15T09:33:43.575Z,1011.98
2019-05-15T09:34:50.673Z,1012.00
2019-05-15T09:35:44.580Z,1011.96
2019-05-15T09:36:45.290Z,1011.89
2019-05-15T09:37:43.533Z,1011.83
2019-05-15T09:38:43.517Z,1011.93
2019-05-15T09:39:43.505Z,1011.91
2019-05-15T09:40:46.646Z,1011.93
2019-05-15T09:41:44.513Z,1011.92
2019-05-15T09:42:43.484Z,1011.87
2019-05-15T09:43:43.462Z,1011.93
2019-05-15T09:44:43.449Z,1011.93
2019-05-15T09:45:43.439Z,1011.92
2019-05-15T09:46:43.427Z,1011.90
2019-05-15T09:47:43.447Z,1011.94
2019-05-15T09:48:43.409Z,1011.94
2019-05-15T09:49:43.391Z,1011.88
2019-05-15T09:50:43.379Z,1011.89
2019-05-15T09:51:43.370Z,1011.92
2019-05-15T09:52:43.358Z,1011.90
2019-05-15T09:53:44.132Z,1011.85
2019-05-15T09:54:43.333Z,1011.81
2019-05-15T09:55:43.322Z,1011.77
2019-05-15T09:56:43.310Z,1011.84
2019-05-15T09:57:43.303Z,1011.90
2019-05-15T09:58:43.324Z,1011.82
2019-05-15T09:59:43.279Z,1011.81
2019-05-15T10:00:43.272Z,1011.79
2019-05-15T10:01:43.253Z,1011.81
2019-05-15T10:02:43.241Z,1011.78
2019-05-15T10:03:44.617Z,1011.72
2019-05-15T10:04:43.247Z,1011.75
2019-05-15T10:05:43.216Z,1011.70
2019-05-15T10:06:43.195Z,1011.67
2019-05-15T10:07:43.183Z,1011.66
2019-05-15T10:08:43.173Z,1011.67
2019-05-15T10:09:43.165Z,1011.79
2019-05-15T10:10:43.178Z,1011.66
2019-05-15T10:11:43.138Z,1011.67
2019-05-15T10:12:43.132Z,1011.70
2019-05-15T10:13:43.114Z,1011.61
2019-05-15T10:14:43.104Z,1011.67
2019-05-15T10:15:43.091Z,1011.61
2019-05-15T10:16:43.096Z,1011.66
2019-05-15T10:17:43.075Z,1011.63
2019-05-15T10:18:43.058Z,1011.63
2019-05-15T10:19:43.048Z,1011.63
2019-05-15T10:20:43.035Z,1011.60
2019-05-15T10:21:43.095Z,1011.57
2019-05-15T10:22:43.015Z,1011.59
2019-05-15T10:23:43.002Z,1011.53
2019-05-15T10:24:42.990Z,1011.57
2019-05-15T10:25:42.976Z,1011.56
2019-05-15T10:26:42.970Z,1011.45
2019-05-15T10:27:42.981Z,1011.52
2019-05-15T10:28:42.951Z,1011.39
2019-05-15T10:29:42.932Z,1011.51
2019-05-15T10:30:42.925Z,1011.53
2019-05-15T10:31:42.910Z,1011.47
2019-05-15T10:32:42.903Z,1011.51
2019-05-15T10:33:42.902Z,1011.49
2019-05-15T10:34:42.877Z,1011.47
2019-05-15T10:35:42.863Z,1011.40
2019-05-15T10:36:42.851Z,1011.42
2019-05-15T10:37:42.842Z,1011.38
2019-05-15T10:38:42.883Z,1011.37
2019-05-15T10:39:42.819Z,1011.42
2019-05-15T10:40:58.662Z,1011.38
2019-05-15T10:41:43.792Z,1011.30
2019-05-15T10:42:42.797Z,1011.45
2019-05-15T10:43:45.836Z,1011.45
2019-05-15T10:44:42.787Z,1011.38
2019-05-15T10:45:43.503Z,1011.36
2019-05-15T10:46:42.752Z,1011.39
2019-05-15T10:47:42.730Z,1011.39
2019-05-15T10:48:42.716Z,1011.32
2019-05-15T10:49:42.705Z,1011.33
2019-05-15T10:50:42.717Z,1011.27
2019-05-15T10:51:42.677Z,1011.31
2019-05-15T10:52:42.669Z,1011.24
2019-05-15T10:53:42.658Z,1011.32
2019-05-15T10:54:42.643Z,1011.29
2019-05-15T10:55:42.631Z,1011.30
2019-05-15T10:56:42.636Z,1011.27
2019-05-15T10:57:44.568Z,1011.28
2019-05-15T10:58:42.597Z,1011.29
2019-05-15T10:59:42.589Z,1011.24
2019-05-15T11:00:42.575Z,1011.20
2019-05-15T11:01:42.591Z,1011.19
2019-05-15T11:02:42.553Z,1011.18
2019-05-15T11:03:42.542Z,1011.22
2019-05-15T11:04:42.527Z,1011.15
2019-05-15T11:05:45.840Z,1011.15
2019-05-15T11:06:42.505Z,1011.13
2019-05-15T11:07:42.526Z,1011.10
2019-05-15T11:08:42.493Z,1011.10
2019-05-15T11:09:42.472Z,1011.11
2019-05-15T11:10:42.459Z,1011.06
2019-05-15T11:11:42.461Z,1011.03
2019-05-15T11:12:42.436Z,1011.00
2019-05-15T11:13:42.441Z,1011.04
2019-05-15T11:14:42.413Z,1011.07
2019-05-15T11:15:42.725Z,1011.02
2019-05-15T11:16:42.389Z,1011.03
2019-05-15T11:17:42.382Z,1011.11
2019-05-15T11:18:42.523Z,1011.05
2019-05-15T11:19:42.622Z,1011.05
2019-05-15T11:20:42.342Z,1010.98
2019-05-15T11:21:43.685Z,1010.98
2019-05-15T11:22:43.002Z,1011.03
2019-05-15T11:23:42.789Z,1011.05
2019-05-15T11:24:42.328Z,1010.99
2019-05-15T11:25:42.286Z,1010.95
2019-05-15T11:26:42.279Z,1010.96
2019-05-15T11:27:42.262Z,1010.99
2019-05-15T11:28:42.264Z,1011.05
2019-05-15T11:29:42.237Z,1011.06
2019-05-15T11:30:42.256Z,1010.95
2019-05-15T11:31:42.223Z,1010.97
2019-05-15T11:32:42.205Z,1010.99
2019-05-15T11:33:42.193Z,1010.96
2019-05-15T11:34:42.182Z,1010.88
2019-05-15T11:35:56.735Z,1011.01
2019-05-15T11:36:43.179Z,1011.06
2019-05-15T11:37:45.265Z,1011.05
2019-05-15T11:38:42.136Z,1010.99
2019-05-15T11:39:45.911Z,1011.07
2019-05-15T11:40:42.112Z,1011.00
2019-05-15T11:41:42.129Z,1010.94
2019-05-15T11:42:42.088Z,1010.90
2019-05-15T11:43:42.077Z,1010.92
2019-05-15T11:44:42.066Z,1010.93
2019-05-15T11:45:42.054Z,1010.92
2019-05-15T11:46:42.042Z,1010.89
2019-05-15T11:47:42.058Z,1010.83
2019-05-15T11:48:42.020Z,1010.87
2019-05-15T11:49:42.009Z,1010.93
2019-05-15T11:50:41.997Z,1010.88
2019-05-15T11:51:41.987Z,1010.88
2019-05-15T11:52:41.974Z,1010.90
2019-05-15T11:53:41.977Z,1010.87
2019-05-15T11:54:41.952Z,1010.88
2019-05-15T11:55:41.938Z,1010.86
2019-05-15T11:56:41.942Z,1010.87
2019-05-15T11:57:46.952Z,1010.82
2019-05-15T11:58:42.936Z,1010.84
2019-05-15T11:59:45.076Z,1010.92
2019-05-15T12:00:41.881Z,1010.85
2019-05-15T12:01:41.869Z,1010.82
2019-05-15T12:02:41.914Z,1010.89
2019-05-15T12:03:41.851Z,1010.83
2019-05-15T12:04:41.864Z,1010.83
2019-05-15T12:05:41.824Z,1010.84